createdAt,value
2022-09-01T00:08:12.477Z,58.43
2022-09-01T00:23:55.209Z,58.46
2022-09-01T00:39:37.832Z,58.46
2022-09-01T00:55:19.910Z,58.48
2022-09-01T01:11:02.071Z,58.5
2022-09-01T01:26:44.433Z,58.52
2022-09-01T01:42:26.532Z,58.53
2022-09-01T01:58:08.802Z,58.55
2022-09-01T02:13:51.203Z,58.57
2022-09-01T02:29:34.139Z,58.58
2022-09-01T02:45:16.406Z,58.61
2022-09-01T03:00:59.054Z,58.63
2022-09-01T03:16:41.966Z,58.65
2022-09-01T03:32:24.338Z,58.67
2022-09-01T03:48:07.027Z,58.68
2022-09-01T04:03:49.505Z,58.7
2022-09-01T04:19:32.028Z,58.73
2022-09-01T04:35:14.320Z,58.75
2022-09-01T04:50:56.986Z,58.79
2022-09-01T05:06:39.306Z,58.81
2022-09-01T05:22:21.894Z,58.83
2022-09-01T05:23:09.103Z,58.6
2022-09-01T05:38:51.457Z,58.77
2022-09-01T05:54:34.195Z,58.81
2022-09-01T06:10:16.941Z,58.85
2022-09-01T06:25:59.557Z,58.87
2022-09-01T06:41:42.512Z,58.88
2022-09-01T06:57:25.422Z,58.84
2022-09-01T07:13:07.898Z,58.83
2022-09-01T07:28:50.557Z,58.8
2022-09-01T07:44:32.938Z,58.76
2022-09-01T08:00:15.268Z,58.74
2022-09-01T08:15:57.757Z,58.71
2022-09-01T08:31:40.064Z,58.67
2022-09-01T08:47:22.269Z,58.62
2022-09-01T09:03:05.064Z,58.61
2022-09-01T09:18:47.035Z,58.59
2022-09-01T09:34:29.272Z,58.57
2022-09-01T09:50:11.873Z,58.55
2022-09-01T10:05:54.821Z,58.51
2022-09-01T10:21:37.440Z,58.47
2022-09-01T10:37:19.923Z,58.47
2022-09-01T10:53:02.082Z,58.47
2022-09-01T11:08:44.723Z,58.49
2022-09-01T11:24:26.982Z,58.42
2022-09-01T11:40:09.675Z,58.42
2022-09-01T11:55:51.600Z,58.51
2022-09-01T12:11:33.997Z,58.57
2022-09-01T12:27:16.499Z,58.63
2022-09-01T12:42:58.966Z,58.68
2022-09-01T12:58:41.283Z,58.68
2022-09-01T13:14:23.931Z,58.7
2022-09-01T13:30:06.120Z,58.83
2022-09-01T13:45:48.492Z,58.57
2022-09-01T14:01:30.406Z,58.56
2022-09-01T14:17:13.259Z,58.63
2022-09-01T14:32:55.462Z,58.72
2022-09-01T14:48:37.723Z,58.64
2022-09-01T15:04:20.586Z,58.22
2022-09-01T15:20:02.677Z,57.86
2022-09-01T15:35:45.016Z,57.64
2022-09-01T15:51:27.069Z,57.59
2022-09-01T16:07:09.875Z,57.43
2022-09-01T16:22:52.800Z,57.44
2022-09-01T16:38:35.499Z,57.37
2022-09-01T16:54:17.878Z,57.47
2022-09-01T17:10:00.712Z,57.61
2022-09-01T17:25:43.193Z,57.76
2022-09-01T17:41:25.251Z,57.94
2022-09-01T17:57:08.065Z,58.08
2022-09-01T18:12:50.217Z,58.19
2022-09-01T18:28:32.796Z,58.26
2022-09-01T18:44:15.346Z,58.32
2022-09-01T18:59:57.608Z,58.37
2022-09-01T19:15:40.239Z,58.43
2022-09-01T19:31:22.491Z,58.44
2022-09-01T19:47:04.938Z,58.47
2022-09-01T20:02:47.151Z,58.5
2022-09-01T20:18:29.193Z,58.52
2022-09-01T20:34:11.586Z,58.54
2022-09-01T20:49:53.808Z,58.56
2022-09-01T21:05:36.643Z,58.6
2022-09-01T21:21:18.893Z,58.63
2022-09-01T21:37:01.729Z,58.67
2022-09-01T21:52:43.957Z,58.71
2022-09-01T22:08:26.131Z,58.73
2022-09-01T22:24:08.679Z,58.76
2022-09-01T22:39:51.521Z,58.8
2022-09-01T22:55:33.995Z,58.81
2022-09-01T23:11:16.520Z,58.85
2022-09-01T23:26:58.651Z,58.87
2022-09-01T23:42:41.483Z,58.88
2022-09-01T23:58:24.058Z,58.9
